Time;durP1;ratioP1;P1;durP2;ratioP2;P2;SDS_P1;SDS_P2;PMS_P1;PMS_P2;Temp;Humidity;BMP_temperature;BMP_pressure;BME280_temperature;BME280_humidity;BME280_pressure;Samples;Min_cycle;Max_cycle;Signal;HPM_P1;HPM_P2
2022/01/16 00:01:15;;;;;;;56.67;22.92;;;;;;;;;;5007265;28;20057;-79
2022/01/16 00:06:26;;;;;;;55.40;23.85;;;;;;;;;;5005166;28;20053;-79
2022/01/16 00:08:53;;;;;;;59.47;26.85;;;;;;;;;;5007102;28;20129;-79
2022/01/16 00:11:19;;;;;;;55.60;25.05;;;;;;;;;;5008159;28;20042;-78
2022/01/16 00:13:45;;;;;;;53.22;25.33;;;;;;;;;;5017234;28;20071;-79
2022/01/16 00:16:13;;;;;;;50.67;22.15;;;;;;;;;;5008881;28;20045;-79
2022/01/16 00:18:49;;;;;;;51.63;23.33;;;;;;;;;;5000821;28;20117;-78
2022/01/16 00:21:16;;;;;;;55.42;25.10;;;;;;;;;;4989757;28;20053;-79
2022/01/16 00:23:42;;;;;;;58.72;25.65;;;;;;;;;;4991652;28;20056;-79
2022/01/16 00:26:08;;;;;;;44.58;20.20;;;;;;;;;;5009544;28;20700;-79
2022/01/16 00:28:34;;;;;;;54.13;23.75;;;;;;;;;;5009044;28;20045;-79
2022/01/16 00:31:01;;;;;;;62.05;27.77;;;;;;;;;;5000887;28;20069;-79
2022/01/16 00:33:27;;;;;;;62.13;27.48;;;;;;;;;;5008096;28;20074;-80
2022/01/16 00:35:53;;;;;;;47.30;20.70;;;;;;;;;;5003476;28;20042;-79
2022/01/16 00:38:19;;;;;;;61.45;26.08;;;;;;;;;;5009203;28;20050;-79
2022/01/16 00:40:45;;;;;;;56.47;26.02;;;;;;;;;;5008062;28;20077;-79
2022/01/16 00:43:11;;;;;;;63.15;27.30;;;;;;;;;;5010162;28;20085;-78
2022/01/16 00:45:38;;;;;;;60.33;28.70;;;;;;;;;;5008922;28;20034;-78
2022/01/16 00:48:05;;;;;;;54.92;24.40;;;;;;;;;;4992395;28;20053;-79
2022/01/16 00:50:32;;;;;;;63.42;27.35;;;;;;;;;;5008512;28;20069;-79
2022/01/16 00:52:59;;;;;;;67.63;27.83;;;;;;;;;;4999999;28;20448;-78
2022/01/16 00:55:25;;;;;;;70.25;29.10;;;;;;;;;;5004079;28;20140;-79
2022/01/16 00:57:51;;;;;;;61.22;26.58;;;;;;;;;;5008252;28;20038;-78
2022/01/16 01:00:17;;;;;;;81.57;32.55;;;;;;;;;;5008152;28;20042;-79
2022/01/16 01:02:44;;;;;;;81.25;32.03;;;;;;;;;;5006100;28;20529;-79
2022/01/16 01:05:10;;;;;;;67.43;27.23;;;;;;;;;;5008206;28;20038;-79
2022/01/16 01:07:38;;;;;;;64.90;27.27;;;;;;;;;;5005584;28;20133;-79
2022/01/16 01:10:04;;;;;;;61.70;25.48;;;;;;;;;;5009245;28;20540;-80
2022/01/16 01:12:43;;;;;;;61.38;26.55;;;;;;;;;;5008138;28;20124;-80
2022/01/16 01:15:10;;;;;;;57.53;24.48;;;;;;;;;;5005508;28;20050;-79
2022/01/16 01:17:44;;;;;;;60.45;25.42;;;;;;;;;;5008676;28;20464;-79
2022/01/16 01:20:11;;;;;;;;;;;;;;;;;;4990486;28;20034;-78
2022/01/16 01:22:37;;;;;;;63.40;25.55;;;;;;;;;;5008596;28;19992;-80
2022/01/16 01:25:03;;;;;;;54.95;25.10;;;;;;;;;;5006370;28;20045;-79
2022/01/16 01:27:31;;;;;;;60.92;27.80;;;;;;;;;;5006158;28;20104;-79
2022/01/16 01:30:05;;;;;;;56.95;23.83;;;;;;;;;;4979418;28;20053;-80
2022/01/16 01:32:33;;;;;;;;;;;;;;;;;;5006070;28;20054;-79
2022/01/16 01:34:59;;;;;;;52.83;24.38;;;;;;;;;;5008206;28;19962;-79
2022/01/16 01:37:25;;;;;;;57.60;24.73;;;;;;;;;;5002767;28;20478;-79
2022/01/16 01:39:51;;;;;;;62.63;27.27;;;;;;;;;;5007088;28;20095;-79
2022/01/16 01:42:17;;;;;;;58.15;25.10;;;;;;;;;;5007386;28;20042;-79
2022/01/16 01:52:59;;;;;;;63.50;27.65;;;;;;;;;;4988364;28;20042;-78
2022/01/16 01:55:26;;;;;;;59.30;25.17;;;;;;;;;;5006640;28;20567;-79
2022/01/16 01:57:52;;;;;;;50.53;23.15;;;;;;;;;;4990616;28;20133;-80
2022/01/16 02:00:19;;;;;;;57.75;25.92;;;;;;;;;;5007892;28;20026;-79
2022/01/16 02:03:09;;;;;;;53.72;23.45;;;;;;;;;;5007740;28;20103;-79
2022/01/16 02:05:35;;;;;;;57.72;25.83;;;;;;;;;;5007366;28;21113;-80
2022/01/16 02:08:04;;;;;;;60.60;27.52;;;;;;;;;;5006610;28;20128;-78
2022/01/16 02:10:30;;;;;;;60.75;24.42;;;;;;;;;;5008328;28;20041;-79
2022/01/16 02:13:01;;;;;;;56.95;24.88;;;;;;;;;;5005233;28;20336;-81
2022/01/16 02:15:39;;;;;;;70.72;31.63;;;;;;;;;;4989274;28;20049;-79
2022/01/16 02:31:44;;;;;;;78.15;30.63;;;;;;;;;;4989297;28;20048;-79
2022/01/16 02:36:59;;;;;;;89.13;36.08;;;;;;;;;;4988409;28;20529;-79
2022/01/16 02:39:26;;;;;;;113.68;38.53;;;;;;;;;;4989468;28;20450;-79
2022/01/16 02:41:54;;;;;;;97.93;37.80;;;;;;;;;;4988649;28;20046;-79
2022/01/16 02:46:51;;;;;;;91.03;36.13;;;;;;;;;;5005414;28;20503;-79
2022/01/16 02:49:24;;;;;;;100.25;38.45;;;;;;;;;;5006773;28;20346;-79
2022/01/16 02:51:52;;;;;;;88.70;37.10;;;;;;;;;;4987649;28;20045;-79
2022/01/16 02:54:20;;;;;;;99.07;37.20;;;;;;;;;;4972602;28;20115;-79
2022/01/16 02:56:48;;;;;;;89.85;35.42;;;;;;;;;;5006867;28;20046;-79
2022/01/16 02:59:14;;;;;;;111.57;40.25;;;;;;;;;;4989495;28;20045;-79
2022/01/16 03:01:41;;;;;;;107.88;40.53;;;;;;;;;;5007820;28;20042;-79
2022/01/16 03:04:07;;;;;;;78.90;28.35;;;;;;;;;;4985148;28;20057;-80
2022/01/16 03:06:33;;;;;;;97.55;36.97;;;;;;;;;;4979168;28;20037;-79
2022/01/16 03:09:00;;;;;;;96.47;37.28;;;;;;;;;;5004168;28;20599;-79
2022/01/16 03:11:37;;;;;;;106.13;39.30;;;;;;;;;;4956997;28;20046;-80
2022/01/16 03:14:04;;;;;;;105.57;37.47;;;;;;;;;;4995972;28;20046;-79
2022/01/16 03:16:30;;;;;;;109.55;41.10;;;;;;;;;;4976272;28;20108;-79
2022/01/16 03:21:54;;;;;;;100.28;36.85;;;;;;;;;;4987258;28;20042;-79
2022/01/16 03:24:24;;;;;;;105.38;39.15;;;;;;;;;;4973110;28;20034;-79
2022/01/16 03:26:51;;;;;;;96.15;36.13;;;;;;;;;;4987200;28;20493;-79
2022/01/16 03:29:17;;;;;;;99.65;37.38;;;;;;;;;;4987662;28;20037;-79
2022/01/16 03:31:43;;;;;;;102.80;39.20;;;;;;;;;;5006923;28;20081;-79
2022/01/16 03:34:09;;;;;;;96.35;36.50;;;;;;;;;;4997930;28;20041;-79
2022/01/16 03:36:36;;;;;;;98.88;36.47;;;;;;;;;;4989209;28;20077;-79
2022/01/16 03:39:03;;;;;;;101.03;40.15;;;;;;;;;;4983048;28;20065;-79
2022/01/16 03:41:30;;;;;;;94.95;34.72;;;;;;;;;;5005893;28;20053;-78
2022/01/16 03:44:03;;;;;;;104.90;40.28;;;;;;;;;;4987431;28;20055;-79
2022/01/16 03:46:34;;;;;;;116.17;37.60;;;;;;;;;;4996950;28;20048;-79
2022/01/16 03:49:01;;;;;;;110.50;40.10;;;;;;;;;;4988342;28;20297;-79
2022/01/16 03:51:27;;;;;;;120.72;41.70;;;;;;;;;;5005036;28;20050;-79
2022/01/16 03:53:54;;;;;;;109.32;40.78;;;;;;;;;;4989132;28;20072;-79
2022/01/16 03:56:20;;;;;;;112.32;41.60;;;;;;;;;;5005397;28;20050;-80
2022/01/16 03:58:46;;;;;;;101.47;37.20;;;;;;;;;;4989201;28;20038;-79
2022/01/16 04:01:12;;;;;;;99.22;35.70;;;;;;;;;;4988129;28;20459;-79
2022/01/16 04:03:38;;;;;;;98.00;34.38;;;;;;;;;;4988391;28;20069;-79
2022/01/16 04:06:04;;;;;;;102.35;38.65;;;;;;;;;;5005733;28;20042;-79
2022/01/16 04:08:30;;;;;;;97.20;36.75;;;;;;;;;;5005554;28;20038;-79
2022/01/16 04:11:00;;;;;;;109.85;39.88;;;;;;;;;;4989481;28;20046;-78
2022/01/16 04:13:26;;;;;;;105.93;39.17;;;;;;;;;;4986479;28;20045;-77
2022/01/16 04:15:52;;;;;;;113.43;39.30;;;;;;;;;;4989189;28;20445;-78
2022/01/16 04:18:18;;;;;;;141.55;50.58;;;;;;;;;;5005739;28;20077;-77
2022/01/16 04:20:45;;;;;;;106.15;39.03;;;;;;;;;;4989201;28;20042;-77
2022/01/16 04:23:11;;;;;;;120.13;44.97;;;;;;;;;;4995868;28;20056;-78
2022/01/16 04:25:37;;;;;;;117.82;40.80;;;;;;;;;;5005725;28;20034;-76
2022/01/16 04:28:04;;;;;;;104.32;38.97;;;;;;;;;;5022964;28;20050;-77
2022/01/16 04:30:30;;;;;;;115.53;38.17;;;;;;;;;;4975842;28;20477;-77
2022/01/16 04:32:56;;;;;;;114.40;41.67;;;;;;;;;;5007171;28;20099;-77
2022/01/16 04:35:22;;;;;;;142.95;47.38;;;;;;;;;;4988424;28;20148;-77
2022/01/16 04:37:48;;;;;;;130.57;41.88;;;;;;;;;;4974173;28;20757;-77
2022/01/16 04:40:16;;;;;;;126.90;43.38;;;;;;;;;;5008246;28;20052;-78
2022/01/16 04:45:27;;;;;;;117.10;39.08;;;;;;;;;;4989372;28;20049;-78
2022/01/16 04:47:53;;;;;;;108.82;38.47;;;;;;;;;;4991787;28;20034;-77
2022/01/16 04:50:22;;;;;;;141.73;44.97;;;;;;;;;;4976310;28;20907;-78
2022/01/16 04:52:48;;;;;;;129.07;41.85;;;;;;;;;;5007387;28;20060;-78
2022/01/16 04:55:15;;;;;;;125.07;42.55;;;;;;;;;;5009607;28;20050;-77
2022/01/16 04:57:41;;;;;;;146.85;45.60;;;;;;;;;;4990857;28;20580;-77
2022/01/16 05:00:15;;;;;;;137.73;42.25;;;;;;;;;;4991030;28;20497;-77
2022/01/16 05:02:41;;;;;;;126.20;39.43;;;;;;;;;;5009037;28;20045;-78
2022/01/16 05:05:08;;;;;;;143.45;44.38;;;;;;;;;;5005486;28;20042;-79
2022/01/16 05:07:34;;;;;;;148.27;44.00;;;;;;;;;;5006840;28;20504;-78
2022/01/16 05:10:00;;;;;;;136.63;42.22;;;;;;;;;;5006343;28;20104;-78
2022/01/16 05:12:32;;;;;;;141.80;45.47;;;;;;;;;;5006294;28;20081;-78
2022/01/16 05:17:43;;;;;;;140.68;42.97;;;;;;;;;;5007020;28;20056;-78
2022/01/16 05:20:10;;;;;;;137.45;43.05;;;;;;;;;;5007615;28;20532;-78
2022/01/16 05:22:36;;;;;;;153.73;43.72;;;;;;;;;;5007004;28;20883;-78
2022/01/16 05:25:04;;;;;;;160.70;49.03;;;;;;;;;;5007696;28;20058;-78
2022/01/16 05:27:30;;;;;;;157.93;46.42;;;;;;;;;;5005942;28;20034;-79
2022/01/16 05:29:56;;;;;;;129.80;39.15;;;;;;;;;;5007357;28;20129;-77
2022/01/16 05:32:22;;;;;;;144.77;43.05;;;;;;;;;;4991188;28;20515;-79
2022/01/16 05:34:48;;;;;;;159.10;46.63;;;;;;;;;;4990318;28;20124;-78
2022/01/16 05:37:14;;;;;;;142.25;43.40;;;;;;;;;;5006908;28;20038;-78
2022/01/16 05:39:44;;;;;;;164.65;48.25;;;;;;;;;;4987983;28;20046;-78
2022/01/16 05:42:11;;;;;;;154.10;45.15;;;;;;;;;;4989301;28;20054;-78
2022/01/16 05:44:37;;;;;;;135.18;40.60;;;;;;;;;;5005541;28;20499;-78
2022/01/16 05:47:05;;;;;;;161.25;47.75;;;;;;;;;;4974280;28;20073;-78
2022/01/16 05:49:31;;;;;;;160.23;47.67;;;;;;;;;;4998180;28;20105;-78
2022/01/16 05:51:57;;;;;;;159.43;48.47;;;;;;;;;;5022801;28;20120;-77
2022/01/16 05:54:23;;;;;;;169.02;46.72;;;;;;;;;;5001044;28;20050;-78
2022/01/16 05:56:49;;;;;;;147.95;43.25;;;;;;;;;;4990076;28;20049;-78
2022/01/16 05:59:15;;;;;;;168.20;49.05;;;;;;;;;;4970412;28;20038;-78
2022/01/16 06:01:42;;;;;;;165.43;48.83;;;;;;;;;;4995521;28;20147;-78
2022/01/16 06:04:08;;;;;;;179.75;50.22;;;;;;;;;;5007257;28;20127;-78
2022/01/16 06:06:34;;;;;;;159.35;46.85;;;;;;;;;;5005193;28;20517;-78
2022/01/16 06:09:00;;;;;;;144.68;41.63;;;;;;;;;;5006259;28;20108;-78
2022/01/16 06:11:32;;;;;;;179.73;49.33;;;;;;;;;;5005455;28;20541;-78
2022/01/16 06:13:58;;;;;;;176.95;47.42;;;;;;;;;;5004276;28;20038;-79
2022/01/16 06:16:24;;;;;;;193.35;52.15;;;;;;;;;;5006999;28;20092;-79
2022/01/16 06:18:51;;;;;;;186.98;50.47;;;;;;;;;;5004940;28;21016;-78
2022/01/16 06:21:18;;;;;;;143.80;36.50;;;;;;;;;;4989219;28;20449;-77
2022/01/16 06:23:44;;;;;;;155.27;42.28;;;;;;;;;;4987676;28;20057;-78
2022/01/16 06:26:10;;;;;;;181.55;49.60;;;;;;;;;;4973226;28;20040;-79
2022/01/16 06:28:36;;;;;;;198.15;49.22;;;;;;;;;;5005166;28;20495;-78
2022/01/16 06:31:02;;;;;;;163.68;46.65;;;;;;;;;;4989199;28;20034;-78
2022/01/16 06:33:29;;;;;;;166.90;46.45;;;;;;;;;;5007134;28;20183;-78
2022/01/16 06:35:55;;;;;;;153.30;41.53;;;;;;;;;;5004656;28;20050;-78
2022/01/16 06:38:21;;;;;;;143.25;38.22;;;;;;;;;;5006282;28;20443;-80
2022/01/16 06:40:47;;;;;;;169.18;44.78;;;;;;;;;;4987047;28;20042;-79
2022/01/16 06:43:13;;;;;;;163.18;46.88;;;;;;;;;;4971279;28;20380;-79
2022/01/16 06:45:39;;;;;;;199.68;49.95;;;;;;;;;;5005226;28;20064;-79
2022/01/16 06:48:06;;;;;;;147.95;42.05;;;;;;;;;;5002505;28;20450;-79
2022/01/16 06:50:32;;;;;;;168.60;46.05;;;;;;;;;;5001992;28;20044;-78
2022/01/16 06:52:58;;;;;;;195.70;51.55;;;;;;;;;;5000259;28;20050;-79
2022/01/16 06:55:24;;;;;;;197.50;49.78;;;;;;;;;;4989301;28;20412;-79
2022/01/16 06:57:51;;;;;;;185.25;51.83;;;;;;;;;;5003416;28;20995;-78
2022/01/16 07:00:17;;;;;;;165.77;48.85;;;;;;;;;;5005847;28;20133;-78
2022/01/16 07:02:43;;;;;;;167.45;49.08;;;;;;;;;;5004583;28;20420;-79
2022/01/16 07:05:09;;;;;;;180.82;49.63;;;;;;;;;;5004096;28;20129;-79
2022/01/16 07:07:36;;;;;;;183.50;48.55;;;;;;;;;;5005124;28;20454;-78
2022/01/16 07:10:03;;;;;;;207.68;55.75;;;;;;;;;;5004066;28;20069;-79
2022/01/16 07:12:29;;;;;;;171.25;47.70;;;;;;;;;;5005858;28;20041;-79
2022/01/16 07:14:56;;;;;;;158.00;43.50;;;;;;;;;;5004478;28;20073;-79
2022/01/16 07:17:22;;;;;;;180.23;50.47;;;;;;;;;;5005524;28;20046;-78
2022/01/16 07:19:48;;;;;;;153.30;44.17;;;;;;;;;;5006540;28;20034;-79
2022/01/16 07:22:15;;;;;;;163.75;47.08;;;;;;;;;;5007273;28;20034;-79
2022/01/16 07:24:41;;;;;;;183.88;51.75;;;;;;;;;;5005982;28;20477;-79
2022/01/16 07:27:09;;;;;;;150.43;44.55;;;;;;;;;;5006953;28;20060;-79
2022/01/16 07:29:35;;;;;;;195.90;54.08;;;;;;;;;;5007506;28;20585;-78
2022/01/16 07:32:07;;;;;;;182.02;51.22;;;;;;;;;;4989556;28;20525;-78
2022/01/16 07:34:33;;;;;;;178.95;54.13;;;;;;;;;;5008471;28;20099;-80
2022/01/16 07:37:00;;;;;;;185.82;54.90;;;;;;;;;;5005528;28;20370;-79
2022/01/16 07:39:26;;;;;;;136.27;43.15;;;;;;;;;;5007575;28;20041;-79
2022/01/16 07:41:52;;;;;;;168.40;51.13;;;;;;;;;;5004886;28;20546;-79
2022/01/16 07:44:18;;;;;;;182.50;52.88;;;;;;;;;;5007702;28;20030;-79
2022/01/16 07:46:45;;;;;;;129.60;41.53;;;;;;;;;;5006463;28;20053;-78
2022/01/16 07:49:11;;;;;;;189.40;55.40;;;;;;;;;;5008980;28;20543;-78
2022/01/16 07:51:38;;;;;;;141.68;41.78;;;;;;;;;;5008897;28;20382;-77
2022/01/16 07:54:04;;;;;;;152.35;46.38;;;;;;;;;;4997167;28;20148;-77
2022/01/16 07:56:31;;;;;;;168.07;55.17;;;;;;;;;;4990548;28;20038;-78
2022/01/16 07:58:57;;;;;;;165.40;53.83;;;;;;;;;;5018242;28;20041;-79
2022/01/16 08:01:24;;;;;;;167.45;51.28;;;;;;;;;;4991362;28;20041;-79
2022/01/16 08:03:50;;;;;;;158.38;51.65;;;;;;;;;;5004858;28;20038;-79
2022/01/16 08:06:16;;;;;;;168.30;54.17;;;;;;;;;;5005936;28;20408;-80
2022/01/16 08:08:44;;;;;;;123.95;43.78;;;;;;;;;;5006353;28;20123;-79
2022/01/16 08:11:10;;;;;;;147.43;49.10;;;;;;;;;;5006230;28;20050;-78
2022/01/16 08:13:37;;;;;;;133.18;45.97;;;;;;;;;;5007503;28;20120;-78
2022/01/16 08:16:04;;;;;;;151.30;52.33;;;;;;;;;;5010035;28;20073;-79
2022/01/16 08:18:30;;;;;;;141.75;48.35;;;;;;;;;;5010685;28;20033;-79
2022/01/16 08:20:56;;;;;;;140.10;53.67;;;;;;;;;;5009590;28;20480;-79
2022/01/16 08:23:24;;;;;;;147.80;54.03;;;;;;;;;;4975768;28;20102;-79
2022/01/16 08:25:50;;;;;;;138.75;51.33;;;;;;;;;;5010095;28;20041;-79
2022/01/16 08:28:17;;;;;;;103.47;40.90;;;;;;;;;;5008196;28;20053;-80
2022/01/16 08:30:43;;;;;;;103.53;42.28;;;;;;;;;;5002866;28;20034;-79
2022/01/16 08:33:09;;;;;;;118.45;50.38;;;;;;;;;;4995440;28;20038;-79
2022/01/16 08:35:37;;;;;;;97.60;45.40;;;;;;;;;;4992190;28;20046;-80
2022/01/16 08:38:03;;;;;;;106.10;48.03;;;;;;;;;;4999094;28;20054;-80
2022/01/16 08:40:29;;;;;;;106.75;47.58;;;;;;;;;;5011256;28;20639;-79
2022/01/16 08:43:08;;;;;;;113.45;48.65;;;;;;;;;;5008044;28;20088;-80
2022/01/16 08:45:38;;;;;;;111.28;49.55;;;;;;;;;;4999987;28;20034;-80
2022/01/16 08:48:04;;;;;;;103.10;48.08;;;;;;;;;;5010414;28;20049;-80
2022/01/16 08:50:31;;;;;;;106.45;46.28;;;;;;;;;;5002467;28;20109;-80
2022/01/16 08:52:57;;;;;;;106.53;46.33;;;;;;;;;;4991374;28;20054;-79
2022/01/16 08:55:23;;;;;;;108.10;48.28;;;;;;;;;;5000760;28;20057;-80
2022/01/16 08:57:49;;;;;;;102.43;46.42;;;;;;;;;;5012426;28;20038;-80
2022/01/16 09:00:16;;;;;;;102.72;46.75;;;;;;;;;;5005457;28;20097;-80
2022/01/16 09:02:42;;;;;;;107.18;46.42;;;;;;;;;;4974947;28;20046;-80
2022/01/16 09:05:08;;;;;;;89.90;40.28;;;;;;;;;;4994693;28;20413;-81
2022/01/16 09:07:34;;;;;;;92.68;45.47;;;;;;;;;;5007100;28;20468;-80
2022/01/16 09:10:01;;;;;;;86.53;45.05;;;;;;;;;;4972816;28;20042;-80
2022/01/16 09:12:28;;;;;;;88.45;42.55;;;;;;;;;;4999258;28;20092;-79
2022/01/16 09:14:54;;;;;;;82.45;42.53;;;;;;;;;;4991603;28;20050;-80
2022/01/16 09:17:20;;;;;;;81.57;41.38;;;;;;;;;;5003571;28;20482;-81
2022/01/16 09:19:47;;;;;;;81.95;42.30;;;;;;;;;;5009981;28;20042;-80
2022/01/16 09:22:13;;;;;;;82.78;41.33;;;;;;;;;;4987565;28;20049;-80
2022/01/16 09:24:39;;;;;;;91.75;41.13;;;;;;;;;;4977785;28;20048;-80
2022/01/16 09:27:05;;;;;;;79.72;42.97;;;;;;;;;;4985740;28;20434;-80
2022/01/16 09:29:31;;;;;;;74.97;39.08;;;;;;;;;;5004506;28;20109;-81
2022/01/16 09:32:01;;;;;;;79.75;40.40;;;;;;;;;;4974439;28;20030;-80
2022/01/16 09:34:28;;;;;;;78.57;40.53;;;;;;;;;;4995474;28;20048;-81
2022/01/16 09:36:54;;;;;;;71.85;40.13;;;;;;;;;;5008191;28;20152;-80
2022/01/16 09:39:20;;;;;;;74.70;38.05;;;;;;;;;;4992079;28;20042;-80
2022/01/16 09:41:49;;;;;;;71.78;39.22;;;;;;;;;;4995290;28;20046;-80
2022/01/16 09:44:17;;;;;;;70.47;38.10;;;;;;;;;;4991349;28;20054;-80
2022/01/16 09:46:43;;;;;;;70.03;37.67;;;;;;;;;;4991386;28;20493;-80
2022/01/16 09:49:09;;;;;;;71.07;38.15;;;;;;;;;;5010210;28;20501;-80
2022/01/16 09:51:36;;;;;;;75.03;37.92;;;;;;;;;;5008642;28;20132;-81
2022/01/16 09:54:02;;;;;;;60.50;35.53;;;;;;;;;;4975805;28;20148;-80
2022/01/16 09:56:29;;;;;;;69.32;36.85;;;;;;;;;;5006339;28;20097;-80
2022/01/16 09:58:58;;;;;;;64.20;36.53;;;;;;;;;;5008357;28;20038;-80
2022/01/16 10:01:24;;;;;;;65.43;34.75;;;;;;;;;;5024458;28;20022;-79
2022/01/16 10:03:51;;;;;;;62.80;34.47;;;;;;;;;;5017182;28;20512;-80
2022/01/16 10:06:21;;;;;;;66.93;35.72;;;;;;;;;;5009058;28;20045;-80
2022/01/16 10:08:48;;;;;;;68.70;35.95;;;;;;;;;;4989467;28;20114;-80
2022/01/16 10:11:21;;;;;;;70.72;34.83;;;;;;;;;;5007446;28;20050;-79
2022/01/16 10:13:58;;;;;;;62.47;34.35;;;;;;;;;;4997215;28;20092;-79
2022/01/16 10:16:25;;;;;;;71.75;33.17;;;;;;;;;;4989848;28;20498;-79
2022/01/16 10:18:51;;;;;;;63.05;33.95;;;;;;;;;;4996214;28;20061;-79
2022/01/16 10:21:30;;;;;;;69.88;36.05;;;;;;;;;;5008181;28;20116;-79
2022/01/16 10:23:57;;;;;;;65.03;35.45;;;;;;;;;;5008468;28;20133;-80
2022/01/16 10:26:24;;;;;;;58.85;34.50;;;;;;;;;;5006801;28;20105;-80
2022/01/16 10:28:50;;;;;;;61.35;35.85;;;;;;;;;;5008234;28;20038;-79
2022/01/16 10:31:23;;;;;;;59.78;35.92;;;;;;;;;;4975331;28;20084;-79
2022/01/16 10:33:49;;;;;;;71.22;36.42;;;;;;;;;;5007228;28;20053;-78
2022/01/16 10:36:31;;;;;;;72.43;37.10;;;;;;;;;;5006552;28;20454;-79
2022/01/16 10:39:11;;;;;;;62.70;32.95;;;;;;;;;;5008877;28;20077;-79
2022/01/16 10:41:38;;;;;;;66.55;34.25;;;;;;;;;;5010089;28;20130;-80
2022/01/16 10:44:04;;;;;;;64.15;34.92;;;;;;;;;;5009384;28;20072;-80
2022/01/16 10:46:30;;;;;;;63.05;34.97;;;;;;;;;;5010106;28;20488;-80
2022/01/16 10:49:13;;;;;;;61.65;33.25;;;;;;;;;;4998752;28;20092;-80
2022/01/16 10:51:39;;;;;;;73.53;35.75;;;;;;;;;;5006564;28;20096;-79
2022/01/16 10:54:24;;;;;;;66.53;35.95;;;;;;;;;;4984646;28;20054;-81
2022/01/16 10:56:50;;;;;;;68.18;37.38;;;;;;;;;;4998030;28;20457;-80
2022/01/16 10:59:23;;;;;;;72.60;39.20;;;;;;;;;;4998363;28;20052;-80
2022/01/16 11:02:05;;;;;;;70.75;34.55;;;;;;;;;;4986453;28;20038;-80
2022/01/16 11:04:32;;;;;;;80.43;38.53;;;;;;;;;;4988755;28;20056;-80
2022/01/16 11:07:05;;;;;;;74.80;37.10;;;;;;;;;;4997576;28;20037;-80
2022/01/16 11:09:32;;;;;;;72.35;36.20;;;;;;;;;;5005469;28;20041;-80
2022/01/16 11:12:01;;;;;;;79.18;39.42;;;;;;;;;;5000965;28;20730;-80
2022/01/16 11:14:28;;;;;;;83.15;40.33;;;;;;;;;;5002820;28;20117;-80
2022/01/16 11:16:58;;;;;;;85.47;40.63;;;;;;;;;;4998181;28;20068;-80
2022/01/16 11:19:26;;;;;;;80.03;39.05;;;;;;;;;;5005988;28;20535;-80
2022/01/16 11:21:55;;;;;;;79.45;38.97;;;;;;;;;;5003250;28;20073;-80
2022/01/16 11:27:00;;;;;;;85.20;41.30;;;;;;;;;;4985427;28;20066;-80
2022/01/16 11:29:28;;;;;;;83.35;41.15;;;;;;;;;;4998508;28;20080;-80
2022/01/16 11:31:55;;;;;;;85.60;38.22;;;;;;;;;;5001294;28;20850;-80
2022/01/16 11:34:21;;;;;;;78.30;41.03;;;;;;;;;;5005729;28;20038;-79
2022/01/16 11:36:47;;;;;;;78.65;37.45;;;;;;;;;;5003464;28;20054;-80
2022/01/16 11:39:13;;;;;;;90.80;39.80;;;;;;;;;;4988833;28;20050;-79
2022/01/16 11:41:51;;;;;;;73.32;39.05;;;;;;;;;;5004671;28;20036;-81
2022/01/16 11:44:23;;;;;;;82.93;39.58;;;;;;;;;;4987547;28;20505;-80
2022/01/16 11:46:50;;;;;;;77.72;38.80;;;;;;;;;;5007727;28;20062;-79
2022/01/16 11:49:20;;;;;;;71.07;36.25;;;;;;;;;;5009014;28;20041;-80
2022/01/16 11:51:51;;;;;;;75.78;37.78;;;;;;;;;;4993103;28;20050;-80
2022/01/16 11:54:31;;;;;;;74.75;37.25;;;;;;;;;;5007110;28;20041;-80
2022/01/16 11:57:17;;;;;;;79.45;35.80;;;;;;;;;;5010246;28;20049;-80
2022/01/16 11:59:43;;;;;;;80.07;35.55;;;;;;;;;;5009657;28;20092;-80
2022/01/16 12:02:09;;;;;;;64.35;32.65;;;;;;;;;;4990358;28;20048;-80
2022/01/16 12:04:38;;;;;;;66.78;31.77;;;;;;;;;;5011299;28;20049;-80
2022/01/16 12:07:13;;;;;;;66.55;30.48;;;;;;;;;;5009612;28;20038;-80
2022/01/16 12:12:16;;;;;;;62.90;28.50;;;;;;;;;;5010546;28;20096;-79
2022/01/16 12:14:48;;;;;;;65.13;26.67;;;;;;;;;;4991150;28;20367;-80
2022/01/16 12:17:28;;;;;;;61.38;26.98;;;;;;;;;;4989201;28;20478;-80
2022/01/16 12:19:55;;;;;;;58.65;26.63;;;;;;;;;;5007532;28;20360;-79
2022/01/16 12:22:42;;;;;;;49.67;25.48;;;;;;;;;;4992239;28;20362;-80
2022/01/16 12:25:09;;;;;;;59.15;22.20;;;;;;;;;;4979820;28;20551;-80
2022/01/16 12:27:38;;;;;;;45.33;21.55;;;;;;;;;;5008201;28;20163;-78
2022/01/16 12:30:13;;;;;;;46.58;21.08;;;;;;;;;;4992226;28;20444;-78
2022/01/16 12:32:58;;;;;;;40.90;19.52;;;;;;;;;;5015914;28;20093;-79
2022/01/16 12:35:39;;;;;;;40.47;18.65;;;;;;;;;;4988524;28;20045;-79
2022/01/16 12:38:08;;;;;;;41.95;17.52;;;;;;;;;;4986951;28;20153;-78
2022/01/16 12:40:34;;;;;;;47.20;20.50;;;;;;;;;;4987951;28;20509;-78
2022/01/16 12:43:01;;;;;;;44.95;19.23;;;;;;;;;;4991843;28;20486;-78
2022/01/16 12:45:29;;;;;;;41.45;17.33;;;;;;;;;;5008818;28;20054;-78
2022/01/16 12:47:57;;;;;;;35.03;15.85;;;;;;;;;;5010146;28;20050;-79
2022/01/16 12:50:23;;;;;;;37.55;16.95;;;;;;;;;;5009116;28;20061;-78
2022/01/16 12:52:50;;;;;;;34.50;15.93;;;;;;;;;;5007681;28;20100;-79
2022/01/16 12:55:16;;;;;;;30.92;14.18;;;;;;;;;;5007979;28;20056;-79
2022/01/16 12:57:42;;;;;;;40.10;14.88;;;;;;;;;;5006832;28;20092;-78
2022/01/16 13:00:12;;;;;;;31.77;13.90;;;;;;;;;;4975431;28;20101;-80
2022/01/16 13:02:38;;;;;;;32.38;12.93;;;;;;;;;;4980060;28;20045;-77
2022/01/16 13:05:05;;;;;;;29.02;12.75;;;;;;;;;;4992439;28;20516;-80
2022/01/16 13:07:32;;;;;;;30.73;12.85;;;;;;;;;;5009002;28;20128;-80
2022/01/16 13:09:58;;;;;;;31.88;12.23;;;;;;;;;;4991861;28;20116;-80
2022/01/16 13:12:25;;;;;;;30.05;12.13;;;;;;;;;;5009246;28;20052;-85
2022/01/16 13:14:51;;;;;;;26.15;11.93;;;;;;;;;;4995318;28;20863;-82
2022/01/16 13:17:18;;;;;;;26.30;11.27;;;;;;;;;;4973681;28;20049;-83
2022/01/16 13:22:12;;;;;;;28.98;10.70;;;;;;;;;;5002689;28;20054;-84
2022/01/16 13:24:38;;;;;;;20.65;10.75;;;;;;;;;;5008529;28;20082;-86
2022/01/16 13:27:06;;;;;;;24.17;10.85;;;;;;;;;;4992002;28;20049;-84
2022/01/16 13:29:35;;;;;;;29.88;11.18;;;;;;;;;;5005771;28;20042;-86
2022/01/16 13:32:03;;;;;;;25.25;10.32;;;;;;;;;;5006898;28;20405;-84
2022/01/16 13:34:35;;;;;;;27.17;10.63;;;;;;;;;;5005594;28;20164;-84
2022/01/16 13:37:01;;;;;;;21.63;10.13;;;;;;;;;;4983476;28;20081;-86
2022/01/16 13:39:40;;;;;;;22.80;9.45;;;;;;;;;;5007755;28;20050;-87
2022/01/16 13:42:30;;;;;;;23.65;9.85;;;;;;;;;;5001244;28;20041;-87
2022/01/16 13:45:15;;;;;;;21.80;10.50;;;;;;;;;;5004970;28;20054;-85
2022/01/16 13:47:49;;;;;;;29.70;10.85;;;;;;;;;;5003200;28;20065;-88
2022/01/16 13:50:15;;;;;;;28.98;10.07;;;;;;;;;;4976473;28;20057;-86
2022/01/16 13:52:51;;;;;;;21.77;10.40;;;;;;;;;;4988213;28;20043;-86
2022/01/16 13:55:17;;;;;;;24.05;9.20;;;;;;;;;;4968194;28;20498;-85
2022/01/16 13:57:43;;;;;;;22.80;10.18;;;;;;;;;;4996397;28;20108;-86
2022/01/16 14:00:10;;;;;;;30.33;10.10;;;;;;;;;;4987634;28;20060;-88
2022/01/16 14:02:37;;;;;;;21.27;9.55;;;;;;;;;;4992220;28;20129;-84
2022/01/16 14:05:04;;;;;;;19.90;8.98;;;;;;;;;;4981509;28;20466;-88
2022/01/16 14:07:30;;;;;;;30.58;11.05;;;;;;;;;;4997787;28;20049;-88
2022/01/16 14:09:57;;;;;;;27.05;9.88;;;;;;;;;;5018316;28;20494;-88
2022/01/16 14:12:23;;;;;;;21.80;9.20;;;;;;;;;;4998879;28;20468;-87
2022/01/16 14:14:57;;;;;;;31.40;9.77;;;;;;;;;;5009446;28;20053;-86
2022/01/16 14:17:41;;;;;;;24.00;9.40;;;;;;;;;;4988563;28;20050;-87
2022/01/16 14:20:46;;;;;;;26.95;10.75;;;;;;;;;;4990311;28;20056;-87
2022/01/16 14:23:11;;;;;;;19.45;9.93;;;;;;;;;;4986304;28;20517;-89
2022/01/16 14:25:37;;;;;;;26.38;11.40;;;;;;;;;;4992857;23;20122;-92
2022/01/16 14:31:23;;;;;;;22.05;11.18;;;;;;;;;;5026576;28;20041;-87
2022/01/16 14:33:50;;;;;;;24.08;9.65;;;;;;;;;;5042510;28;20056;-85
2022/01/16 14:36:17;;;;;;;29.17;10.50;;;;;;;;;;5046891;28;20040;-87
2022/01/16 14:38:50;;;;;;;24.88;10.40;;;;;;;;;;5026784;28;20073;-86
2022/01/16 14:41:19;;;;;;;25.63;10.90;;;;;;;;;;5050234;28;20047;-86
2022/01/16 14:43:56;;;;;;;21.55;9.70;;;;;;;;;;4994432;28;20045;-88
2022/01/16 14:46:23;;;;;;;28.63;9.85;;;;;;;;;;5046238;28;20059;-88
2022/01/16 14:48:50;;;;;;;23.73;10.88;;;;;;;;;;5048206;28;20073;-87
2022/01/16 14:51:16;;;;;;;34.95;10.68;;;;;;;;;;5014480;28;20480;-88
2022/01/16 14:53:42;;;;;;;25.33;10.57;;;;;;;;;;5010538;28;20128;-88
2022/01/16 14:56:09;;;;;;;31.98;10.73;;;;;;;;;;5026653;28;20037;-85
2022/01/16 14:58:35;;;;;;;23.90;9.88;;;;;;;;;;5011523;28;20493;-85
2022/01/16 15:01:01;;;;;;;35.65;10.80;;;;;;;;;;5043978;28;20353;-84
2022/01/16 15:03:34;;;;;;;33.67;10.90;;;;;;;;;;5047007;28;20378;-88
2022/01/16 15:06:07;;;;;;;27.75;11.52;;;;;;;;;;5042007;28;20045;-86
2022/01/16 15:08:46;;;;;;;34.33;11.80;;;;;;;;;;5046956;28;20049;-85